sensor_id;sensor_type;location;lat;lon;timestamp;temperature;humidity
76291;DHT22;65100;46.884;17.410;2023-04-29T00:02:06;12.87;74.68
76291;DHT22;65100;46.884;17.410;2023-04-29T00:04:32;13.05;73.89
76291;DHT22;65100;46.884;17.410;2023-04-29T00:06:59;13.21;73.05
76291;DHT22;65100;46.884;17.410;2023-04-29T00:09:24;13.35;73.50
76291;DHT22;65100;46.884;17.410;2023-04-29T00:11:49;13.23;73.70
76291;DHT22;65100;46.884;17.410;2023-04-29T00:14:36;13.26;73.37
76291;DHT22;65100;46.884;17.410;2023-04-29T00:17:22;13.21;72.32
76291;DHT22;65100;46.884;17.410;2023-04-29T00:19:48;13.25;73.68
76291;DHT22;65100;46.884;17.410;2023-04-29T00:22:14;13.16;73.16
76291;DHT22;65100;46.884;17.410;2023-04-29T00:24:40;13.05;74.34
76291;DHT22;65100;46.884;17.410;2023-04-29T00:27:06;12.90;75.36
76291;DHT22;65100;46.884;17.410;2023-04-29T00:29:31;12.95;75.19
76291;DHT22;65100;46.884;17.410;2023-04-29T00:31:57;13.15;74.32
76291;DHT22;65100;46.884;17.410;2023-04-29T00:34:23;13.22;74.43
76291;DHT22;65100;46.884;17.410;2023-04-29T00:36:48;13.25;74.36
76291;DHT22;65100;46.884;17.410;2023-04-29T00:39:14;13.18;74.76
76291;DHT22;65100;46.884;17.410;2023-04-29T00:41:40;13.18;74.68
76291;DHT22;65100;46.884;17.410;2023-04-29T00:44:05;13.16;74.57
76291;DHT22;65100;46.884;17.410;2023-04-29T00:46:32;13.11;74.55
76291;DHT22;65100;46.884;17.410;2023-04-29T00:48:57;12.97;75.27
76291;DHT22;65100;46.884;17.410;2023-04-29T00:51:23;12.83;75.83
76291;DHT22;65100;46.884;17.410;2023-04-29T00:53:49;12.68;76.53
76291;DHT22;65100;46.884;17.410;2023-04-29T00:56:14;12.57;76.45
76291;DHT22;65100;46.884;17.410;2023-04-29T00:58:40;12.58;76.34
76291;DHT22;65100;46.884;17.410;2023-04-29T01:01:10;12.43;77.44
76291;DHT22;65100;46.884;17.410;2023-04-29T01:03:36;12.58;77.02
76291;DHT22;65100;46.884;17.410;2023-04-29T01:06:28;12.57;76.70
76291;DHT22;65100;46.884;17.410;2023-04-29T01:10:00;12.54;76.78
76291;DHT22;65100;46.884;17.410;2023-04-29T01:14:53;12.51;76.89
76291;DHT22;65100;46.884;17.410;2023-04-29T01:17:23;12.53;76.50
76291;DHT22;65100;46.884;17.410;2023-04-29T01:19:54;12.53;76.64
76291;DHT22;65100;46.884;17.410;2023-04-29T01:22:21;12.54;76.91
76291;DHT22;65100;46.884;17.410;2023-04-29T01:24:47;12.50;76.82
76291;DHT22;65100;46.884;17.410;2023-04-29T01:30:25;12.30;77.41
76291;DHT22;65100;46.884;17.410;2023-04-29T01:36:17;12.12;77.55
76291;DHT22;65100;46.884;17.410;2023-04-29T01:41:44;11.89;78.09
76291;DHT22;65100;46.884;17.410;2023-04-29T01:44:18;11.55;79.37
76291;DHT22;65100;46.884;17.410;2023-04-29T01:46:53;11.51;79.66
76291;DHT22;65100;46.884;17.410;2023-04-29T01:49:20;11.86;78.18
76291;DHT22;65100;46.884;17.410;2023-04-29T01:51:45;12.03;77.61
76291;DHT22;65100;46.884;17.410;2023-04-29T01:54:11;12.07;77.40
76291;DHT22;65100;46.884;17.410;2023-04-29T01:56:36;11.86;77.11
76291;DHT22;65100;46.884;17.410;2023-04-29T01:59:02;11.78;77.46
76291;DHT22;65100;46.884;17.410;2023-04-29T02:01:27;11.80;77.23
76291;DHT22;65100;46.884;17.410;2023-04-29T02:03:53;11.72;77.26
76291;DHT22;65100;46.884;17.410;2023-04-29T02:06:18;11.70;77.47
76291;DHT22;65100;46.884;17.410;2023-04-29T02:08:43;11.61;77.66
76291;DHT22;65100;46.884;17.410;2023-04-29T02:11:09;11.68;78.08
76291;DHT22;65100;46.884;17.410;2023-04-29T02:13:34;11.63;78.26
76291;DHT22;65100;46.884;17.410;2023-04-29T02:16:07;11.68;78.14
76291;DHT22;65100;46.884;17.410;2023-04-29T02:18:33;11.83;77.62
76291;DHT22;65100;46.884;17.410;2023-04-29T02:21:01;11.89;77.83
76291;DHT22;65100;46.884;17.410;2023-04-29T02:23:26;11.97;77.63
76291;DHT22;65100;46.884;17.410;2023-04-29T02:25:52;11.99;77.59
76291;DHT22;65100;46.884;17.410;2023-04-29T02:28:18;11.96;77.89
76291;DHT22;65100;46.884;17.410;2023-04-29T02:30:43;11.96;78.29
76291;DHT22;65100;46.884;17.410;2023-04-29T02:33:09;12.07;78.04
76291;DHT22;65100;46.884;17.410;2023-04-29T02:35:34;12.16;77.80
76291;DHT22;65100;46.884;17.410;2023-04-29T02:38:00;12.12;78.21
76291;DHT22;65100;46.884;17.410;2023-04-29T02:40:25;12.12;78.44
76291;DHT22;65100;46.884;17.410;2023-04-29T02:42:51;12.10;78.10
76291;DHT22;65100;46.884;17.410;2023-04-29T02:45:17;12.10;78.35
76291;DHT22;65100;46.884;17.410;2023-04-29T02:47:42;12.04;78.00
76291;DHT22;65100;46.884;17.410;2023-04-29T02:50:08;12.04;77.96
76291;DHT22;65100;46.884;17.410;2023-04-29T02:52:34;11.96;77.99
76291;DHT22;65100;46.884;17.410;2023-04-29T02:55:00;11.78;78.43
76291;DHT22;65100;46.884;17.410;2023-04-29T02:57:25;11.66;79.90
76291;DHT22;65100;46.884;17.410;2023-04-29T02:59:51;11.51;80.52
76291;DHT22;65100;46.884;17.410;2023-04-29T03:02:16;11.39;80.76
76291;DHT22;65100;46.884;17.410;2023-04-29T03:04:42;11.48;80.96
76291;DHT22;65100;46.884;17.410;2023-04-29T03:07:08;11.66;81.83
76291;DHT22;65100;46.884;17.410;2023-04-29T03:09:33;12.00;81.25
76291;DHT22;65100;46.884;17.410;2023-04-29T03:11:58;12.20;79.92
76291;DHT22;65100;46.884;17.410;2023-04-29T03:14:24;12.32;79.75
76291;DHT22;65100;46.884;17.410;2023-04-29T03:16:49;12.32;79.35
76291;DHT22;65100;46.884;17.410;2023-04-29T03:19:15;12.37;79.79
76291;DHT22;65100;46.884;17.410;2023-04-29T03:21:41;12.19;80.17
76291;DHT22;65100;46.884;17.410;2023-04-29T03:24:06;12.12;80.36
76291;DHT22;65100;46.884;17.410;2023-04-29T03:26:32;12.16;79.94
76291;DHT22;65100;46.884;17.410;2023-04-29T03:28:57;11.70;81.80
76291;DHT22;65100;46.884;17.410;2023-04-29T03:31:23;11.90;81.82
76291;DHT22;65100;46.884;17.410;2023-04-29T03:33:49;12.14;80.72
76291;DHT22;65100;46.884;17.410;2023-04-29T03:36:15;12.27;80.93
76291;DHT22;65100;46.884;17.410;2023-04-29T03:38:41;12.22;80.25
76291;DHT22;65100;46.884;17.410;2023-04-29T03:41:07;12.17;80.52
76291;DHT22;65100;46.884;17.410;2023-04-29T03:43:33;12.00;81.46
76291;DHT22;65100;46.884;17.410;2023-04-29T03:45:59;11.99;81.65
76291;DHT22;65100;46.884;17.410;2023-04-29T03:48:24;12.12;81.11
76291;DHT22;65100;46.884;17.410;2023-04-29T03:50:49;12.23;81.33
76291;DHT22;65100;46.884;17.410;2023-04-29T03:53:15;12.20;81.30
76291;DHT22;65100;46.884;17.410;2023-04-29T03:55:41;12.23;81.69
76291;DHT22;65100;46.884;17.410;2023-04-29T03:58:07;12.13;82.50
76291;DHT22;65100;46.884;17.410;2023-04-29T04:00:32;11.65;84.67
76291;DHT22;65100;46.884;17.410;2023-04-29T04:02:58;11.86;84.24
76291;DHT22;65100;46.884;17.410;2023-04-29T04:05:24;12.03;84.14
76291;DHT22;65100;46.884;17.410;2023-04-29T04:07:53;11.93;84.62
76291;DHT22;65100;46.884;17.410;2023-04-29T04:10:19;11.82;84.53
76291;DHT22;65100;46.884;17.410;2023-04-29T04:12:45;11.85;84.86
76291;DHT22;65100;46.884;17.410;2023-04-29T04:15:11;11.83;85.06
76291;DHT22;65100;46.884;17.410;2023-04-29T04:17:37;12.06;85.16
76291;DHT22;65100;46.884;17.410;2023-04-29T04:20:03;12.00;85.46
76291;DHT22;65100;46.884;17.410;2023-04-29T04:22:29;11.78;86.74
76291;DHT22;65100;46.884;17.410;2023-04-29T04:24:55;11.61;87.38
76291;DHT22;65100;46.884;17.410;2023-04-29T04:27:20;11.66;87.27
76291;DHT22;65100;46.884;17.410;2023-04-29T04:29:46;12.12;85.65
76291;DHT22;65100;46.884;17.410;2023-04-29T04:32:11;12.26;85.38
76291;DHT22;65100;46.884;17.410;2023-04-29T04:34:37;12.04;86.20
76291;DHT22;65100;46.884;17.410;2023-04-29T04:37:04;11.86;86.41
76291;DHT22;65100;46.884;17.410;2023-04-29T04:39:30;11.89;86.87
76291;DHT22;65100;46.884;17.410;2023-04-29T04:41:55;11.85;87.37
76291;DHT22;65100;46.884;17.410;2023-04-29T04:44:21;11.78;88.48
76291;DHT22;65100;46.884;17.410;2023-04-29T04:46:46;12.22;86.02
76291;DHT22;65100;46.884;17.410;2023-04-29T04:49:12;12.56;83.93
76291;DHT22;65100;46.884;17.410;2023-04-29T04:51:37;12.60;84.71
76291;DHT22;65100;46.884;17.410;2023-04-29T04:54:03;12.54;85.37
76291;DHT22;65100;46.884;17.410;2023-04-29T04:56:28;12.38;86.11
76291;DHT22;65100;46.884;17.410;2023-04-29T04:58:54;12.48;85.64
76291;DHT22;65100;46.884;17.410;2023-04-29T05:01:19;12.51;85.78
76291;DHT22;65100;46.884;17.410;2023-04-29T05:03:45;12.58;85.45
76291;DHT22;65100;46.884;17.410;2023-04-29T05:06:10;12.40;86.60
76291;DHT22;65100;46.884;17.410;2023-04-29T05:08:36;12.43;86.58
76291;DHT22;65100;46.884;17.410;2023-04-29T05:11:01;12.46;84.91
76291;DHT22;65100;46.884;17.410;2023-04-29T05:13:27;12.51;85.23
76291;DHT22;65100;46.884;17.410;2023-04-29T05:15:52;12.83;84.99
76291;DHT22;65100;46.884;17.410;2023-04-29T05:18:18;13.01;84.67
76291;DHT22;65100;46.884;17.410;2023-04-29T05:20:43;13.31;83.33
76291;DHT22;65100;46.884;17.410;2023-04-29T05:23:09;13.21;83.59
76291;DHT22;65100;46.884;17.410;2023-04-29T05:25:34;12.92;85.68
76291;DHT22;65100;46.884;17.410;2023-04-29T05:28:01;13.16;84.60
76291;DHT22;65100;46.884;17.410;2023-04-29T05:30:27;13.61;82.53
76291;DHT22;65100;46.884;17.410;2023-04-29T05:32:52;13.75;81.64
76291;DHT22;65100;46.884;17.410;2023-04-29T05:35:18;13.85;81.13
76291;DHT22;65100;46.884;17.410;2023-04-29T05:37:43;13.79;81.91
76291;DHT22;65100;46.884;17.410;2023-04-29T05:40:09;13.89;79.85
76291;DHT22;65100;46.884;17.410;2023-04-29T05:42:35;13.90;79.94
76291;DHT22;65100;46.884;17.410;2023-04-29T05:45:00;13.93;80.93
76291;DHT22;65100;46.884;17.410;2023-04-29T05:47:26;13.59;81.16
76291;DHT22;65100;46.884;17.410;2023-04-29T05:49:51;13.35;81.75
76291;DHT22;65100;46.884;17.410;2023-04-29T05:52:17;13.25;83.19
76291;DHT22;65100;46.884;17.410;2023-04-29T05:54:42;13.62;80.81
76291;DHT22;65100;46.884;17.410;2023-04-29T05:57:08;13.76;80.75
76291;DHT22;65100;46.884;17.410;2023-04-29T05:59:33;13.83;78.74
76291;DHT22;65100;46.884;17.410;2023-04-29T06:01:59;14.02;76.88
76291;DHT22;65100;46.884;17.410;2023-04-29T06:04:25;14.03;75.98
76291;DHT22;65100;46.884;17.410;2023-04-29T06:06:51;13.96;77.34
76291;DHT22;65100;46.884;17.410;2023-04-29T06:09:18;14.19;77.72
76291;DHT22;65100;46.884;17.410;2023-04-29T06:11:47;14.36;77.96
76291;DHT22;65100;46.884;17.410;2023-04-29T06:14:13;14.57;75.56
76291;DHT22;65100;46.884;17.410;2023-04-29T06:16:39;15.11;74.99
76291;DHT22;65100;46.884;17.410;2023-04-29T06:19:04;14.98;72.19
76291;DHT22;65100;46.884;17.410;2023-04-29T06:21:30;14.97;74.52
76291;DHT22;65100;46.884;17.410;2023-04-29T06:23:56;14.85;73.96
76291;DHT22;65100;46.884;17.410;2023-04-29T06:26:22;15.09;71.98
76291;DHT22;65100;46.884;17.410;2023-04-29T06:28:47;15.36;71.84
76291;DHT22;65100;46.884;17.410;2023-04-29T06:31:13;15.34;72.20
76291;DHT22;65100;46.884;17.410;2023-04-29T06:33:38;15.59;72.20
76291;DHT22;65100;46.884;17.410;2023-04-29T06:36:04;15.28;72.89
76291;DHT22;65100;46.884;17.410;2023-04-29T06:38:30;15.09;73.09
76291;DHT22;65100;46.884;17.410;2023-04-29T06:40:55;15.12;72.76
76291;DHT22;65100;46.884;17.410;2023-04-29T06:43:28;15.14;72.57
76291;DHT22;65100;46.884;17.410;2023-04-29T06:45:54;15.38;72.03
76291;DHT22;65100;46.884;17.410;2023-04-29T06:48:19;14.87;73.35
76291;DHT22;65100;46.884;17.410;2023-04-29T06:50:56;15.05;72.72
76291;DHT22;65100;46.884;17.410;2023-04-29T06:53:23;14.88;73.59
76291;DHT22;65100;46.884;17.410;2023-04-29T06:55:49;14.94;73.97
76291;DHT22;65100;46.884;17.410;2023-04-29T06:58:16;15.17;74.22
76291;DHT22;65100;46.884;17.410;2023-04-29T07:00:46;15.38;71.86
76291;DHT22;65100;46.884;17.410;2023-04-29T07:03:13;15.48;72.51
76291;DHT22;65100;46.884;17.410;2023-04-29T07:05:39;15.55;72.61
76291;DHT22;65100;46.884;17.410;2023-04-29T07:08:06;15.61;72.21
76291;DHT22;65100;46.884;17.410;2023-04-29T07:10:32;15.65;72.02
76291;DHT22;65100;46.884;17.410;2023-04-29T07:12:58;15.72;72.91
76291;DHT22;65100;46.884;17.410;2023-04-29T07:15:25;15.87;71.86
76291;DHT22;65100;46.884;17.410;2023-04-29T07:17:51;15.93;70.75
76291;DHT22;65100;46.884;17.410;2023-04-29T07:20:16;15.73;72.53
76291;DHT22;65100;46.884;17.410;2023-04-29T07:22:42;15.82;70.47
76291;DHT22;65100;46.884;17.410;2023-04-29T07:25:07;15.42;71.28
76291;DHT22;65100;46.884;17.410;2023-04-29T07:27:33;15.61;71.48
76291;DHT22;65100;46.884;17.410;2023-04-29T07:30:00;15.87;71.66
76291;DHT22;65100;46.884;17.410;2023-04-29T07:32:26;15.86;71.00
76291;DHT22;65100;46.884;17.410;2023-04-29T07:34:51;15.96;70.82
76291;DHT22;65100;46.884;17.410;2023-04-29T07:37:18;16.07;70.53
76291;DHT22;65100;46.884;17.410;2023-04-29T07:39:43;16.10;71.54
76291;DHT22;65100;46.884;17.410;2023-04-29T07:42:09;16.12;72.15
76291;DHT22;65100;46.884;17.410;2023-04-29T07:44:35;16.24;71.35
76291;DHT22;65100;46.884;17.410;2023-04-29T07:47:00;16.17;70.47
76291;DHT22;65100;46.884;17.410;2023-04-29T07:49:26;16.23;69.70
76291;DHT22;65100;46.884;17.410;2023-04-29T07:51:52;16.61;69.16
76291;DHT22;65100;46.884;17.410;2023-04-29T07:54:17;16.56;69.82
76291;DHT22;65100;46.884;17.410;2023-04-29T07:56:44;16.40;69.15
76291;DHT22;65100;46.884;17.410;2023-04-29T07:59:10;15.97;69.64
76291;DHT22;65100;46.884;17.410;2023-04-29T08:01:36;16.17;68.78
76291;DHT22;65100;46.884;17.410;2023-04-29T08:04:01;16.05;69.73
76291;DHT22;65100;46.884;17.410;2023-04-29T08:06:27;16.20;69.76
76291;DHT22;65100;46.884;17.410;2023-04-29T08:08:53;16.24;70.47
76291;DHT22;65100;46.884;17.410;2023-04-29T08:11:20;16.10;70.40
76291;DHT22;65100;46.884;17.410;2023-04-29T08:13:50;16.09;71.02
76291;DHT22;65100;46.884;17.410;2023-04-29T08:16:15;16.19;70.41
76291;DHT22;65100;46.884;17.410;2023-04-29T08:18:41;16.37;70.26
76291;DHT22;65100;46.884;17.410;2023-04-29T08:21:07;16.56;68.75
76291;DHT22;65100;46.884;17.410;2023-04-29T08:23:35;16.97;68.90
76291;DHT22;65100;46.884;17.410;2023-04-29T08:26:01;17.27;66.56
76291;DHT22;65100;46.884;17.410;2023-04-29T08:28:27;17.10;67.56
76291;DHT22;65100;46.884;17.410;2023-04-29T08:30:53;17.45;67.20
76291;DHT22;65100;46.884;17.410;2023-04-29T08:33:19;17.43;66.78
76291;DHT22;65100;46.884;17.410;2023-04-29T08:35:45;17.55;66.29
76291;DHT22;65100;46.884;17.410;2023-04-29T08:38:10;17.61;67.42
76291;DHT22;65100;46.884;17.410;2023-04-29T08:40:41;17.76;66.42
76291;DHT22;65100;46.884;17.410;2023-04-29T08:43:07;17.25;68.44
76291;DHT22;65100;46.884;17.410;2023-04-29T08:45:34;17.38;68.03
76291;DHT22;65100;46.884;17.410;2023-04-29T08:48:02;17.11;67.71
76291;DHT22;65100;46.884;17.410;2023-04-29T08:50:29;16.94;67.44
76291;DHT22;65100;46.884;17.410;2023-04-29T08:52:56;17.29;68.03
76291;DHT22;65100;46.884;17.410;2023-04-29T08:55:21;17.45;68.38
76291;DHT22;65100;46.884;17.410;2023-04-29T08:57:49;17.69;67.72
76291;DHT22;65100;46.884;17.410;2023-04-29T09:00:15;17.75;69.22
76291;DHT22;65100;46.884;17.410;2023-04-29T09:02:47;17.93;68.23
76291;DHT22;65100;46.884;17.410;2023-04-29T09:05:14;18.05;66.13
76291;DHT22;65100;46.884;17.410;2023-04-29T09:07:40;17.78;66.46
76291;DHT22;65100;46.884;17.410;2023-04-29T09:10:07;17.82;66.52
76291;DHT22;65100;46.884;17.410;2023-04-29T09:12:32;17.99;66.59
76291;DHT22;65100;46.884;17.410;2023-04-29T09:14:58;18.23;64.23
76291;DHT22;65100;46.884;17.410;2023-04-29T09:17:45;18.61;64.17
76291;DHT22;65100;46.884;17.410;2023-04-29T09:22:50;18.93;63.14
76291;DHT22;65100;46.884;17.410;2023-04-29T09:25:16;18.51;61.92
76291;DHT22;65100;46.884;17.410;2023-04-29T09:27:42;18.20;63.55
76291;DHT22;65100;46.884;17.410;2023-04-29T09:30:08;18.30;63.85
76291;DHT22;65100;46.884;17.410;2023-04-29T09:32:35;18.43;64.12
76291;DHT22;65100;46.884;17.410;2023-04-29T09:35:26;18.54;63.22
76291;DHT22;65100;46.884;17.410;2023-04-29T09:37:52;19.17;60.93
76291;DHT22;65100;46.884;17.410;2023-04-29T09:40:31;19.17;61.22
76291;DHT22;65100;46.884;17.410;2023-04-29T09:42:58;19.07;61.31
76291;DHT22;65100;46.884;17.410;2023-04-29T09:45:37;18.87;62.10
76291;DHT22;65100;46.884;17.410;2023-04-29T09:48:04;18.91;61.81
76291;DHT22;65100;46.884;17.410;2023-04-29T09:50:31;19.05;61.72
76291;DHT22;65100;46.884;17.410;2023-04-29T09:52:57;19.01;62.91
76291;DHT22;65100;46.884;17.410;2023-04-29T09:55:23;19.34;62.46
76291;DHT22;65100;46.884;17.410;2023-04-29T09:57:48;19.61;59.35
76291;DHT22;65100;46.884;17.410;2023-04-29T10:00:14;19.65;59.19
76291;DHT22;65100;46.884;17.410;2023-04-29T10:02:45;19.83;58.24
76291;DHT22;65100;46.884;17.410;2023-04-29T10:05:17;19.49;57.87
76291;DHT22;65100;46.884;17.410;2023-04-29T10:07:45;20.17;58.91
76291;DHT22;65100;46.884;17.410;2023-04-29T10:10:12;20.47;56.96
76291;DHT22;65100;46.884;17.410;2023-04-29T10:12:39;20.32;56.66
76291;DHT22;65100;46.884;17.410;2023-04-29T10:15:16;20.43;56.34
76291;DHT22;65100;46.884;17.410;2023-04-29T10:17:45;20.50;56.66
76291;DHT22;65100;46.884;17.410;2023-04-29T10:20:13;20.40;56.49
76291;DHT22;65100;46.884;17.410;2023-04-29T10:22:48;20.32;57.47
76291;DHT22;65100;46.884;17.410;2023-04-29T10:25:18;20.13;57.38
76291;DHT22;65100;46.884;17.410;2023-04-29T10:27:45;20.00;59.02
76291;DHT22;65100;46.884;17.410;2023-04-29T10:30:12;19.94;57.23
76291;DHT22;65100;46.884;17.410;2023-04-29T10:32:45;20.32;57.57
76291;DHT22;65100;46.884;17.410;2023-04-29T10:35:14;20.32;57.41
76291;DHT22;65100;46.884;17.410;2023-04-29T10:37:40;20.47;57.17
76291;DHT22;65100;46.884;17.410;2023-04-29T10:42:45;20.48;56.62
76291;DHT22;65100;46.884;17.410;2023-04-29T10:45:29;20.33;56.31
76291;DHT22;65100;46.884;17.410;2023-04-29T10:50:39;20.16;58.09
76291;DHT22;65100;46.884;17.410;2023-04-29T10:53:06;20.13;57.82
76291;DHT22;65100;46.884;17.410;2023-04-29T10:59:21;21.07;55.00
76291;DHT22;65100;46.884;17.410;2023-04-29T11:01:48;21.11;54.89
76291;DHT22;65100;46.884;17.410;2023-04-29T11:04:15;20.79;54.96
76291;DHT22;65100;46.884;17.410;2023-04-29T11:06:44;20.76;55.14
76291;DHT22;65100;46.884;17.410;2023-04-29T11:09:29;20.84;54.33
76291;DHT22;65100;46.884;17.410;2023-04-29T11:12:17;20.64;54.42
76291;DHT22;65100;46.884;17.410;2023-04-29T11:14:50;20.30;59.45
76291;DHT22;65100;46.884;17.410;2023-04-29T11:17:17;20.13;57.80
76291;DHT22;65100;46.884;17.410;2023-04-29T11:19:51;19.79;58.64
76291;DHT22;65100;46.884;17.410;2023-04-29T11:22:25;19.86;59.41
76291;DHT22;65100;46.884;17.410;2023-04-29T11:27:17;20.22;57.15
76291;DHT22;65100;46.884;17.410;2023-04-29T11:29:45;20.09;59.23
76291;DHT22;65100;46.884;17.410;2023-04-29T11:32:11;20.02;58.47
76291;DHT22;65100;46.884;17.410;2023-04-29T11:34:37;19.81;59.36
76291;DHT22;65100;46.884;17.410;2023-04-29T11:37:04;19.48;62.21
76291;DHT22;65100;46.884;17.410;2023-04-29T11:39:33;19.35;59.68
76291;DHT22;65100;46.884;17.410;2023-04-29T11:42:05;19.55;57.72
76291;DHT22;65100;46.884;17.410;2023-04-29T11:44:34;19.63;58.41
76291;DHT22;65100;46.884;17.410;2023-04-29T11:47:04;19.63;57.55
76291;DHT22;65100;46.884;17.410;2023-04-29T11:49:31;19.72;57.36
76291;DHT22;65100;46.884;17.410;2023-04-29T11:51:57;19.61;58.10
76291;DHT22;65100;46.884;17.410;2023-04-29T11:54:25;19.81;58.81
76291;DHT22;65100;46.884;17.410;2023-04-29T11:56:53;20.08;57.69
76291;DHT22;65100;46.884;17.410;2023-04-29T11:59:19;20.40;58.73
76291;DHT22;65100;46.884;17.410;2023-04-29T12:01:45;20.54;57.93
76291;DHT22;65100;46.884;17.410;2023-04-29T12:04:11;20.48;57.33
76291;DHT22;65100;46.884;17.410;2023-04-29T12:06:36;20.74;56.84
76291;DHT22;65100;46.884;17.410;2023-04-29T12:09:02;20.85;57.29
76291;DHT22;65100;46.884;17.410;2023-04-29T12:11:29;20.54;57.34
76291;DHT22;65100;46.884;17.410;2023-04-29T12:13:56;20.44;58.08
76291;DHT22;65100;46.884;17.410;2023-04-29T12:16:22;20.39;57.22
76291;DHT22;65100;46.884;17.410;2023-04-29T12:18:53;20.32;58.23
76291;DHT22;65100;46.884;17.410;2023-04-29T12:21:21;20.22;59.17
76291;DHT22;65100;46.884;17.410;2023-04-29T12:23:47;20.00;58.29
76291;DHT22;65100;46.884;17.410;2023-04-29T12:26:12;19.75;61.11
76291;DHT22;65100;46.884;17.410;2023-04-29T12:28:39;19.65;59.82
76291;DHT22;65100;46.884;17.410;2023-04-29T12:31:08;19.45;60.99
76291;DHT22;65100;46.884;17.410;2023-04-29T12:33:35;19.29;62.49
76291;DHT22;65100;46.884;17.410;2023-04-29T12:36:01;19.34;63.79
76291;DHT22;65100;46.884;17.410;2023-04-29T12:38:29;18.67;67.57
76291;DHT22;65100;46.884;17.410;2023-04-29T12:40:59;18.63;71.14
76291;DHT22;65100;46.884;17.410;2023-04-29T12:43:28;18.41;72.13
76291;DHT22;65100;46.884;17.410;2023-04-29T12:46:05;18.30;72.76
76291;DHT22;65100;46.884;17.410;2023-04-29T12:48:31;18.17;75.23
76291;DHT22;65100;46.884;17.410;2023-04-29T12:50:57;18.33;75.38
76291;DHT22;65100;46.884;17.410;2023-04-29T12:53:25;18.41;75.10
76291;DHT22;65100;46.884;17.410;2023-04-29T12:55:51;18.07;75.26
76291;DHT22;65100;46.884;17.410;2023-04-29T12:58:17;18.20;73.87
76291;DHT22;65100;46.884;17.410;2023-04-29T13:00:42;18.40;75.25
76291;DHT22;65100;46.884;17.410;2023-04-29T13:03:08;18.47;73.17
76291;DHT22;65100;46.884;17.410;2023-04-29T13:05:33;18.47;72.41
76291;DHT22;65100;46.884;17.410;2023-04-29T13:07:59;18.59;72.29
76291;DHT22;65100;46.884;17.410;2023-04-29T13:10:24;18.43;71.46
76291;DHT22;65100;46.884;17.410;2023-04-29T13:12:50;18.46;73.01
76291;DHT22;65100;46.884;17.410;2023-04-29T13:15:15;18.51;72.27
76291;DHT22;65100;46.884;17.410;2023-04-29T13:17:41;18.44;72.87
76291;DHT22;65100;46.884;17.410;2023-04-29T13:20:07;18.54;74.16
76291;DHT22;65100;46.884;17.410;2023-04-29T13:22:32;18.34;73.40
76291;DHT22;65100;46.884;17.410;2023-04-29T13:24:58;18.23;73.50
76291;DHT22;65100;46.884;17.410;2023-04-29T13:27:23;18.23;73.20
76291;DHT22;65100;46.884;17.410;2023-04-29T13:29:49;18.07;72.00
76291;DHT22;65100;46.884;17.410;2023-04-29T13:32:15;18.06;72.32
76291;DHT22;65100;46.884;17.410;2023-04-29T13:34:40;18.12;73.52
76291;DHT22;65100;46.884;17.410;2023-04-29T13:37:08;18.20;75.16
76291;DHT22;65100;46.884;17.410;2023-04-29T13:39:33;18.16;74.53
76291;DHT22;65100;46.884;17.410;2023-04-29T13:42:00;18.20;72.91
76291;DHT22;65100;46.884;17.410;2023-04-29T13:44:25;18.33;72.14
76291;DHT22;65100;46.884;17.410;2023-04-29T13:46:51;18.27;73.06
76291;DHT22;65100;46.884;17.410;2023-04-29T13:49:16;18.25;75.42
76291;DHT22;65100;46.884;17.410;2023-04-29T13:51:42;18.13;75.00
76291;DHT22;65100;46.884;17.410;2023-04-29T13:54:07;17.93;75.41
76291;DHT22;65100;46.884;17.410;2023-04-29T13:56:33;17.90;75.50
76291;DHT22;65100;46.884;17.410;2023-04-29T13:58:58;18.02;76.28
76291;DHT22;65100;46.884;17.410;2023-04-29T14:01:24;18.19;73.99
76291;DHT22;65100;46.884;17.410;2023-04-29T14:03:49;18.25;76.42
76291;DHT22;65100;46.884;17.410;2023-04-29T14:06:14;18.19;77.06
76291;DHT22;65100;46.884;17.410;2023-04-29T14:08:40;18.09;75.83
76291;DHT22;65100;46.884;17.410;2023-04-29T14:11:06;18.05;75.08
76291;DHT22;65100;46.884;17.410;2023-04-29T14:13:31;18.07;75.00
76291;DHT22;65100;46.884;17.410;2023-04-29T14:15:56;18.29;74.82
76291;DHT22;65100;46.884;17.410;2023-04-29T14:18:24;18.50;74.80
76291;DHT22;65100;46.884;17.410;2023-04-29T14:20:49;18.39;72.15
76291;DHT22;65100;46.884;17.410;2023-04-29T14:23:15;18.33;70.72
76291;DHT22;65100;46.884;17.410;2023-04-29T14:25:40;18.43;69.48
76291;DHT22;65100;46.884;17.410;2023-04-29T14:28:06;18.51;68.67
76291;DHT22;65100;46.884;17.410;2023-04-29T14:30:31;18.68;69.32
76291;DHT22;65100;46.884;17.410;2023-04-29T14:32:57;18.60;69.16
76291;DHT22;65100;46.884;17.410;2023-04-29T14:35:22;18.80;66.20
76291;DHT22;65100;46.884;17.410;2023-04-29T14:37:47;19.00;68.42
76291;DHT22;65100;46.884;17.410;2023-04-29T14:40:14;19.11;69.33
76291;DHT22;65100;46.884;17.410;2023-04-29T14:42:40;18.97;69.02
76291;DHT22;65100;46.884;17.410;2023-04-29T14:45:06;19.12;68.23
76291;DHT22;65100;46.884;17.410;2023-04-29T14:47:32;19.01;71.86
76291;DHT22;65100;46.884;17.410;2023-04-29T14:49:57;19.05;67.07
76291;DHT22;65100;46.884;17.410;2023-04-29T14:52:23;19.07;69.70
76291;DHT22;65100;46.884;17.410;2023-04-29T14:54:48;19.00;66.51
76291;DHT22;65100;46.884;17.410;2023-04-29T14:57:14;19.00;67.33
76291;DHT22;65100;46.884;17.410;2023-04-29T14:59:39;19.08;68.71
76291;DHT22;65100;46.884;17.410;2023-04-29T15:02:05;19.11;66.74
76291;DHT22;65100;46.884;17.410;2023-04-29T15:04:31;19.34;65.14
76291;DHT22;65100;46.884;17.410;2023-04-29T15:06:56;19.41;64.44
76291;DHT22;65100;46.884;17.410;2023-04-29T15:09:22;19.52;63.07
76291;DHT22;65100;46.884;17.410;2023-04-29T15:11:49;19.55;62.89
76291;DHT22;65100;46.884;17.410;2023-04-29T15:14:14;19.71;62.85
76291;DHT22;65100;46.884;17.410;2023-04-29T15:16:40;19.86;62.21
76291;DHT22;65100;46.884;17.410;2023-04-29T15:19:05;19.83;63.74
76291;DHT22;65100;46.884;17.410;2023-04-29T15:21:31;19.66;63.74
76291;DHT22;65100;46.884;17.410;2023-04-29T15:23:56;19.49;64.15
76291;DHT22;65100;46.884;17.410;2023-04-29T15:26:22;19.32;64.19
76291;DHT22;65100;46.884;17.410;2023-04-29T15:28:47;19.27;63.97
76291;DHT22;65100;46.884;17.410;2023-04-29T15:31:13;19.32;63.41
76291;DHT22;65100;46.884;17.410;2023-04-29T15:33:38;19.18;64.22
76291;DHT22;65100;46.884;17.410;2023-04-29T15:36:05;19.14;64.10
76291;DHT22;65100;46.884;17.410;2023-04-29T15:38:31;19.08;64.11
76291;DHT22;65100;46.884;17.410;2023-04-29T15:40:57;19.12;64.29